Time;durP1;ratioP1;P1;durP2;ratioP2;P2;SDS_P1;SDS_P2;PMS_P1;PMS_P2;Temp;Humidity;BMP_temperature;BMP_pressure;BME280_temperature;BME280_humidity;BME280_pressure;Samples;Min_cycle;Max_cycle;Signal;HPM_P1;HPM_P2
2023/01/30 00:01:34;;;;;;;;;;;;;;;0.52;100.00;98836.81;67808;1277;1016428;-59
2023/01/30 00:04:36;;;;;;;;;;;;;;;0.59;100.00;98834.80;67867;1277;1020129;-59
2023/01/30 00:07:39;;;;;;;;;;;;;;;0.65;100.00;98827.27;67874;1278;1016237;-59
2023/01/30 00:10:41;;;;;;;;;;;;;;;0.65;100.00;98827.95;67575;1278;1016102;-59
2023/01/30 00:13:43;;;;;;;;;;;;;;;0.71;100.00;98823.69;67885;1277;1016383;-59
2023/01/30 00:16:46;;;;;;;;;;;;;;;0.67;100.00;98813.98;67832;1277;1016469;-59
2023/01/30 00:19:48;;;;;;;;;;;;;;;0.68;100.00;98812.21;67833;1277;1016364;-60
2023/01/30 00:22:51;;;;;;;;;;;;;;;0.71;100.00;98805.63;67864;1278;1015863;-59
2023/01/30 00:25:53;;;;;;;;;;;;;;;0.68;100.00;98805.68;67879;1277;1016367;-59
2023/01/30 00:28:56;;;;;;;;;;;;;;;0.65;100.00;98803.70;67869;1278;1016928;-59
2023/01/30 00:31:58;;;;;;;;;;;;;;;0.67;100.00;98796.40;67842;1278;1016433;-59
2023/01/30 00:35:00;;;;;;;;;;;;;;;0.73;100.00;98790.08;67824;1278;1017763;-59
2023/01/30 00:38:03;;;;;;;;;;;;;;;0.69;100.00;98779.34;67826;1278;1016388;-59
2023/01/30 00:41:05;;;;;;;;;;;;;;;0.71;100.00;98771.89;67820;1277;1016886;-59
2023/01/30 00:47:27;;;;;;;;;;;;;;;0.70;100.00;98765.35;67829;1278;1016239;-59
2023/01/30 00:50:41;;;;;;;;;;;;;;;0.71;100.00;98763.79;67825;1278;1015856;-59
2023/01/30 00:53:43;;;;;;;;;;;;;;;0.68;100.00;98754.56;67823;1278;1015843;-59
2023/01/30 00:56:46;;;;;;;;;;;;;;;0.69;100.00;98749.71;67847;1277;1016402;-59
2023/01/30 00:59:48;;;;;;;;;;;;;;;0.68;100.00;98739.58;67883;1278;1016515;-59
2023/01/30 01:02:50;;;;;;;;;;;;;;;0.66;100.00;98730.33;67902;1278;1017322;-59
2023/01/30 01:05:53;;;;;;;;;;;;;;;0.73;100.00;98722.63;67818;1278;1016458;-59
2023/01/30 01:08:55;;;;;;;;;;;;;;;0.79;100.00;98722.48;67854;1278;1018903;-59
2023/01/30 01:11:58;;;;;;;;;;;;;;;0.83;100.00;98716.88;67835;1278;1016361;-59
2023/01/30 01:15:00;;;;;;;;;;;;;;;0.76;100.00;98712.23;67870;1278;1016747;-59
2023/01/30 01:18:02;;;;;;;;;;;;;;;0.66;100.00;98710.55;67867;1278;1016392;-59
2023/01/30 01:21:05;;;;;;;;;;;;;;;0.62;100.00;98697.58;67881;1277;1016077;-59
2023/01/30 01:24:07;;;;;;;;;;;;;;;0.48;100.00;98695.13;67796;1277;1016339;-59
2023/01/30 01:27:10;;;;;;;;;;;;;;;0.48;100.00;98689.95;67826;1278;1016515;-59
2023/01/30 01:30:12;;;;;;;;;;;;;;;0.50;100.00;98683.05;67814;1277;1016474;-59
2023/01/30 01:33:14;;;;;;;;;;;;;;;0.57;100.00;98673.23;67872;1277;1016501;-59
2023/01/30 01:36:17;;;;;;;;;;;;;;;0.56;100.00;98671.02;67839;1278;1017681;-59
2023/01/30 01:39:19;;;;;;;;;;;;;;;0.55;100.00;98663.46;67844;1277;1016019;-59
2023/01/30 01:42:22;;;;;;;;;;;;;;;0.57;100.00;98662.41;67842;1277;1016343;-59
2023/01/30 01:45:24;;;;;;;;;;;;;;;0.48;100.00;98650.89;67842;1277;1018572;-59
2023/01/30 01:48:26;;;;;;;;;;;;;;;0.42;100.00;98644.67;67853;1277;1016556;-59
2023/01/30 01:51:29;;;;;;;;;;;;;;;0.38;100.00;98631.52;67861;1277;1016485;-59
2023/01/30 01:54:31;;;;;;;;;;;;;;;0.38;100.00;98628.92;67904;1278;1017205;-59
2023/01/30 01:57:34;;;;;;;;;;;;;;;0.33;100.00;98618.73;67801;1277;1016429;-59
2023/01/30 02:00:36;;;;;;;;;;;;;;;0.29;100.00;98614.01;67810;1278;1016946;-59
2023/01/30 02:03:38;;;;;;;;;;;;;;;0.26;100.00;98608.40;67821;1277;1020093;-59
2023/01/30 02:06:41;;;;;;;;;;;;;;;0.23;100.00;98594.86;67852;1278;1015992;-59
2023/01/30 02:09:43;;;;;;;;;;;;;;;0.29;100.00;98587.00;67879;1278;1016455;-59
2023/01/30 02:12:46;;;;;;;;;;;;;;;0.31;100.00;98579.89;67882;1278;1016207;-59
2023/01/30 02:15:48;;;;;;;;;;;;;;;0.28;100.00;98579.80;67869;1278;1015747;-59
2023/01/30 02:18:50;;;;;;;;;;;;;;;0.30;100.00;98573.04;67830;1277;1015930;-60
2023/01/30 02:21:53;;;;;;;;;;;;;;;0.40;100.00;98564.20;67853;1277;1016243;-59
2023/01/30 02:24:55;;;;;;;;;;;;;;;0.46;100.00;98555.64;67875;1277;1016884;-59
2023/01/30 02:27:58;;;;;;;;;;;;;;;0.52;100.00;98547.57;67853;1278;1016198;-58
2023/01/30 02:31:01;;;;;;;;;;;;;;;0.48;100.00;98539.23;67830;1277;1017178;-59
2023/01/30 02:34:03;;;;;;;;;;;;;;;0.47;100.00;98541.33;67865;1277;1016383;-59
2023/01/30 02:37:05;;;;;;;;;;;;;;;0.48;100.00;98538.55;67855;1277;1016487;-59
2023/01/30 02:40:08;;;;;;;;;;;;;;;0.55;100.00;98528.93;67868;1278;1018659;-59
2023/01/30 02:43:10;;;;;;;;;;;;;;;0.64;100.00;98513.55;67838;1278;1016442;-59
2023/01/30 02:46:12;;;;;;;;;;;;;;;0.57;100.00;98505.11;67830;1278;1016200;-59
2023/01/30 02:49:15;;;;;;;;;;;;;;;0.50;100.00;98502.54;67828;1277;1016369;-59
2023/01/30 02:52:17;;;;;;;;;;;;;;;0.38;100.00;98510.59;67839;1277;1016688;-59
2023/01/30 02:55:20;;;;;;;;;;;;;;;0.38;100.00;98505.95;67887;1278;1018802;-59
2023/01/30 02:58:22;;;;;;;;;;;;;;;0.42;100.00;98494.14;67894;1277;1016242;-59
2023/01/30 03:01:24;;;;;;;;;;;;;;;0.47;100.00;98486.29;67859;1278;1017267;-60
2023/01/30 03:04:29;;;;;;;;;;;;;;;0.57;100.00;98492.39;67808;1277;1016740;-59
2023/01/30 03:07:33;;;;;;;;;;;;;;;0.54;100.00;98496.77;67869;1277;1019254;-59
2023/01/30 03:10:36;;;;;;;;;;;;;;;0.48;100.00;98492.97;67857;1277;1016350;-59
2023/01/30 03:13:38;;;;;;;;;;;;;;;0.49;100.00;98488.27;67878;1277;1016470;-59
2023/01/30 03:16:41;;;;;;;;;;;;;;;0.64;100.00;98490.49;67847;1277;1016085;-59
2023/01/30 03:19:43;;;;;;;;;;;;;;;0.60;100.00;98487.84;67820;1277;1016614;-59
2023/01/30 03:22:45;;;;;;;;;;;;;;;0.47;100.00;98483.88;67797;1277;1016214;-59
2023/01/30 03:25:48;;;;;;;;;;;;;;;0.37;100.00;98475.52;67812;1277;1015760;-59
2023/01/30 03:28:50;;;;;;;;;;;;;;;0.30;100.00;98469.50;67881;1277;1016565;-59
2023/01/30 03:31:53;;;;;;;;;;;;;;;0.29;100.00;98462.99;67863;1277;1016352;-59
2023/01/30 03:34:55;;;;;;;;;;;;;;;0.29;100.00;98456.45;67849;1278;1015989;-59
2023/01/30 03:37:57;;;;;;;;;;;;;;;0.18;100.00;98450.34;67830;1277;1016600;-59
2023/01/30 03:41:00;;;;;;;;;;;;;;;0.15;100.00;98446.13;67800;1278;1016173;-59
2023/01/30 03:44:02;;;;;;;;;;;;;;;0.13;100.00;98436.20;67853;1277;1016511;-60
2023/01/30 03:47:05;;;;;;;;;;;;;;;0.13;100.00;98437.09;67850;1277;1016505;-60
2023/01/30 03:50:07;;;;;;;;;;;;;;;-0.00;100.00;98423.64;67800;1277;1016428;-59
2023/01/30 03:53:10;;;;;;;;;;;;;;;-0.05;100.00;98412.58;67819;1277;1016209;-59
2023/01/30 03:56:12;;;;;;;;;;;;;;;-0.19;100.00;98402.27;67827;1277;1016269;-59
2023/01/30 03:59:14;;;;;;;;;;;;;;;-0.33;100.00;98406.38;67834;1277;1016371;-59
2023/01/30 04:02:21;;;;;;;;;;;;;;;-0.42;100.00;98396.80;67853;1277;1016360;-59
2023/01/30 04:05:24;;;;;;;;;;;;;;;-0.57;100.00;98389.76;67806;1277;1018460;-59
2023/01/30 04:08:26;;;;;;;;;;;;;;;-0.76;100.00;98382.80;67763;1277;1016491;-59
2023/01/30 04:11:29;;;;;;;;;;;;;;;-0.77;100.00;98376.80;67821;1277;1016386;-59
2023/01/30 04:14:31;;;;;;;;;;;;;;;-0.81;100.00;98368.83;67807;1277;1016082;-59
2023/01/30 04:17:33;;;;;;;;;;;;;;;-0.89;100.00;98366.08;67873;1277;1015943;-59
2023/01/30 04:20:37;;;;;;;;;;;;;;;-0.93;100.00;98363.59;67857;1277;1016435;-59
2023/01/30 04:23:39;;;;;;;;;;;;;;;-1.03;100.00;98356.61;67836;1278;1016298;-59
2023/01/30 04:26:42;;;;;;;;;;;;;;;-0.95;100.00;98351.45;67846;1277;1016189;-59
2023/01/30 04:29:44;;;;;;;;;;;;;;;-1.01;100.00;98348.32;67801;1277;1016447;-59
2023/01/30 04:32:47;;;;;;;;;;;;;;;-1.00;100.00;98348.98;67824;1277;1016004;-60
2023/01/30 04:35:49;;;;;;;;;;;;;;;-0.99;100.00;98340.89;67831;1277;1016425;-59
2023/01/30 04:38:52;;;;;;;;;;;;;;;-1.06;100.00;98338.63;67871;1277;1016461;-59
2023/01/30 04:41:54;;;;;;;;;;;;;;;-0.98;100.00;98328.86;67878;1277;1016451;-59
2023/01/30 04:44:56;;;;;;;;;;;;;;;-0.91;100.00;98325.79;67821;1277;1016257;-59
2023/01/30 04:47:59;;;;;;;;;;;;;;;-0.88;100.00;98320.23;67807;1277;1016507;-59
2023/01/30 04:51:01;;;;;;;;;;;;;;;-0.88;100.00;98326.21;67811;1277;1016221;-59
2023/01/30 04:54:05;;;;;;;;;;;;;;;-0.73;100.00;98316.09;67870;1277;1016430;-59
2023/01/30 04:57:07;;;;;;;;;;;;;;;-0.59;100.00;98316.12;67862;1277;1016410;-59
2023/01/30 05:00:10;;;;;;;;;;;;;;;-0.51;100.00;98309.91;67896;1277;1018191;-59
2023/01/30 05:03:12;;;;;;;;;;;;;;;-0.52;100.00;98307.20;67824;1277;1016429;-59
2023/01/30 05:06:15;;;;;;;;;;;;;;;-0.50;100.00;98310.92;67851;1277;1016716;-59
2023/01/30 05:09:17;;;;;;;;;;;;;;;-0.41;100.00;98304.34;67824;1277;1016259;-59
2023/01/30 05:12:19;;;;;;;;;;;;;;;-0.46;100.00;98301.21;67818;1277;1016366;-59
2023/01/30 05:15:22;;;;;;;;;;;;;;;-0.57;100.00;98299.39;67871;1277;1016281;-59
2023/01/30 05:18:24;;;;;;;;;;;;;;;-0.55;100.00;98296.95;67887;1277;1016439;-59
2023/01/30 05:21:27;;;;;;;;;;;;;;;-0.47;100.00;98294.20;67826;1277;1016433;-59
2023/01/30 05:24:30;;;;;;;;;;;;;;;-0.49;100.00;98295.09;67868;1277;1016336;-59
2023/01/30 05:27:32;;;;;;;;;;;;;;;-0.47;100.00;98283.36;67866;1277;1016119;-59
2023/01/30 05:30:34;;;;;;;;;;;;;;;-0.42;100.00;98273.78;67880;1277;1016704;-59
2023/01/30 05:33:37;;;;;;;;;;;;;;;-0.38;100.00;98271.11;67822;1277;1015943;-59
2023/01/30 05:36:39;;;;;;;;;;;;;;;-0.42;100.00;98264.00;67814;1277;1016317;-59
2023/01/30 05:39:42;;;;;;;;;;;;;;;-0.40;100.00;98261.54;67874;1277;1017430;-60
2023/01/30 05:42:44;;;;;;;;;;;;;;;-0.40;100.00;98249.52;67893;1276;1017120;-59
2023/01/30 05:45:46;;;;;;;;;;;;;;;-0.45;100.00;98240.88;67845;1277;1016737;-59
2023/01/30 05:48:49;;;;;;;;;;;;;;;-0.44;100.00;98231.41;67819;1277;1015845;-59
2023/01/30 05:51:51;;;;;;;;;;;;;;;-0.41;100.00;98223.76;67810;1277;1016284;-60
2023/01/30 05:54:54;;;;;;;;;;;;;;;-0.46;100.00;98208.10;67877;1277;1016427;-59
2023/01/30 05:57:56;;;;;;;;;;;;;;;-0.45;100.00;98196.06;67868;1277;1016325;-59
2023/01/30 06:00:59;;;;;;;;;;;;;;;-0.40;100.00;98185.94;67889;1277;1016485;-59
2023/01/30 06:04:01;;;;;;;;;;;;;;;-0.42;100.00;98180.34;67829;1277;1016390;-59
2023/01/30 06:07:04;;;;;;;;;;;;;;;-0.40;100.00;98175.13;67833;1278;1017465;-60
2023/01/30 06:10:06;;;;;;;;;;;;;;;-0.36;100.00;98149.06;67872;1277;1016453;-59
2023/01/30 06:13:09;;;;;;;;;;;;;;;-0.26;100.00;98153.45;67887;1277;1016760;-59
2023/01/30 06:16:12;;;;;;;;;;;;;;;-0.26;100.00;98172.87;67841;1277;1015964;-59
2023/01/30 06:19:14;;;;;;;;;;;;;;;-0.26;100.00;98177.84;67880;1277;1016856;-59
2023/01/30 06:22:17;;;;;;;;;;;;;;;-0.35;100.00;98168.80;67880;1277;1016419;-59
2023/01/30 06:25:19;;;;;;;;;;;;;;;-0.30;100.00;98157.17;67817;1277;1016450;-59
2023/01/30 06:28:21;;;;;;;;;;;;;;;-0.30;100.00;98145.83;67819;1277;1016406;-59
2023/01/30 06:31:24;;;;;;;;;;;;;;;-0.28;100.00;98139.58;67826;1277;1016507;-59
2023/01/30 06:34:26;;;;;;;;;;;;;;;-0.28;100.00;98139.42;67881;1277;1016936;-60
2023/01/30 06:37:29;;;;;;;;;;;;;;;-0.29;100.00;98148.21;67915;1277;1016193;-59
2023/01/30 06:40:31;;;;;;;;;;;;;;;-0.31;100.00;98156.66;67810;1277;1016558;-59
2023/01/30 06:43:34;;;;;;;;;;;;;;;-0.36;100.00;98146.50;67808;1277;1016141;-59
2023/01/30 06:46:36;;;;;;;;;;;;;;;-0.24;100.00;98134.98;67857;1277;1016296;-59
2023/01/30 06:49:38;;;;;;;;;;;;;;;-0.13;100.00;98129.88;67846;1277;1016435;-59
2023/01/30 06:52:41;;;;;;;;;;;;;;;-0.17;100.00;98125.20;67898;1277;1016387;-59
2023/01/30 06:55:43;;;;;;;;;;;;;;;-0.18;100.00;98122.30;67873;1277;1016405;-59
2023/01/30 06:58:45;;;;;;;;;;;;;;;-0.23;100.00;98114.02;67826;1277;1016063;-59
2023/01/30 07:01:48;;;;;;;;;;;;;;;-0.23;100.00;98117.44;67817;1277;1016329;-59
2023/01/30 07:04:50;;;;;;;;;;;;;;;-0.14;100.00;98118.39;67788;1277;1016559;-59
2023/01/30 07:07:53;;;;;;;;;;;;;;;-0.16;100.00;98107.11;67874;1277;1016315;-59
2023/01/30 07:10:55;;;;;;;;;;;;;;;-0.16;100.00;98086.83;67861;1277;1016864;-59
2023/01/30 07:13:57;;;;;;;;;;;;;;;-0.10;100.00;98096.28;67821;1277;1016501;-59
2023/01/30 07:17:00;;;;;;;;;;;;;;;-0.01;100.00;98084.85;67812;1277;1016189;-59
2023/01/30 07:20:02;;;;;;;;;;;;;;;0.09;100.00;98080.77;67829;1277;1016950;-59
2023/01/30 07:23:05;;;;;;;;;;;;;;;0.09;100.00;98073.54;67841;1277;1017362;-59
2023/01/30 07:26:07;;;;;;;;;;;;;;;0.11;100.00;98074.35;67847;1277;1016491;-59
2023/01/30 07:29:10;;;;;;;;;;;;;;;0.13;100.00;98069.30;67817;1277;1016408;-59
2023/01/30 07:32:12;;;;;;;;;;;;;;;0.10;100.00;98075.41;67830;1277;1016400;-59
2023/01/30 07:35:15;;;;;;;;;;;;;;;0.03;100.00;98070.81;67811;1277;1016319;-59
2023/01/30 07:38:17;;;;;;;;;;;;;;;0.04;100.00;98082.98;67886;1277;1016438;-59
2023/01/30 07:41:20;;;;;;;;;;;;;;;0.08;100.00;98075.48;67886;1277;1016267;-59
2023/01/30 07:44:22;;;;;;;;;;;;;;;0.14;100.00;98076.84;67850;1277;1016511;-59
2023/01/30 07:47:25;;;;;;;;;;;;;;;0.10;100.00;98063.04;67833;1277;1015930;-59
2023/01/30 07:50:27;;;;;;;;;;;;;;;0.19;100.00;98055.02;67868;1277;1016023;-59
2023/01/30 07:53:30;;;;;;;;;;;;;;;0.19;100.00;98051.03;67875;1277;1016548;-59
2023/01/30 07:56:32;;;;;;;;;;;;;;;0.29;100.00;98040.41;67827;1277;1016388;-59
2023/01/30 07:59:34;;;;;;;;;;;;;;;0.40;100.00;98033.88;67841;1277;1016397;-59
2023/01/30 08:02:37;;;;;;;;;;;;;;;0.39;100.00;98036.32;67874;1277;1016491;-59
2023/01/30 08:05:39;;;;;;;;;;;;;;;0.45;100.00;98034.76;67867;1277;1016430;-59
2023/01/30 08:08:42;;;;;;;;;;;;;;;0.54;100.00;98031.54;67830;1277;1016484;-59
2023/01/30 08:11:44;;;;;;;;;;;;;;;0.63;100.00;98016.60;67832;1277;1016321;-59
2023/01/30 08:14:47;;;;;;;;;;;;;;;0.62;100.00;98010.63;67871;1277;1016174;-59
2023/01/30 08:17:49;;;;;;;;;;;;;;;0.68;100.00;98004.20;67881;1277;1016509;-59
2023/01/30 08:20:52;;;;;;;;;;;;;;;0.73;100.00;98003.02;67893;1277;1016491;-59
2023/01/30 08:23:54;;;;;;;;;;;;;;;0.79;100.00;97987.33;67840;1277;1016478;-59
2023/01/30 08:26:56;;;;;;;;;;;;;;;0.87;100.00;97978.61;67826;1277;1016421;-59
2023/01/30 08:29:59;;;;;;;;;;;;;;;0.95;100.00;97970.24;67875;1277;1016141;-59
2023/01/30 08:33:01;;;;;;;;;;;;;;;1.01;100.00;97969.50;67857;1277;1016503;-59
2023/01/30 08:36:04;;;;;;;;;;;;;;;1.15;100.00;97964.85;67856;1277;1016286;-59
2023/01/30 08:39:06;;;;;;;;;;;;;;;1.27;100.00;97962.88;67866;1277;1016534;-59
2023/01/30 08:42:09;;;;;;;;;;;;;;;1.17;100.00;97955.67;67816;1277;1016478;-59
2023/01/30 08:45:11;;;;;;;;;;;;;;;1.03;100.00;97966.52;67853;1277;1016133;-59
2023/01/30 08:48:14;;;;;;;;;;;;;;;1.00;100.00;97953.34;67895;1277;1016500;-59
2023/01/30 08:51:16;;;;;;;;;;;;;;;0.98;100.00;97959.46;67877;1277;1016416;-59
2023/01/30 08:54:19;;;;;;;;;;;;;;;1.00;100.00;97958.52;67865;1277;1016151;-59
2023/01/30 08:57:21;;;;;;;;;;;;;;;0.96;100.00;97955.39;67811;1277;1016117;-59
2023/01/30 09:00:23;;;;;;;;;;;;;;;0.95;100.00;97949.57;67878;1277;1016479;-59
2023/01/30 09:03:26;;;;;;;;;;;;;;;0.96;100.00;97960.23;67897;1277;1018346;-59
2023/01/30 09:06:28;;;;;;;;;;;;;;;0.93;100.00;97963.58;67876;1277;1017296;-59
2023/01/30 09:09:31;;;;;;;;;;;;;;;0.93;100.00;97957.23;67878;1277;1016397;-59
2023/01/30 09:12:33;;;;;;;;;;;;;;;0.97;100.00;97947.28;67838;1277;1016155;-59
2023/01/30 09:15:36;;;;;;;;;;;;;;;1.03;100.00;97949.63;67866;1277;1016481;-59
2023/01/30 09:18:38;;;;;;;;;;;;;;;1.06;100.00;97956.92;67884;1277;1016552;-59
2023/01/30 09:21:40;;;;;;;;;;;;;;;1.14;100.00;97947.51;67896;1277;1016204;-59
2023/01/30 09:24:43;;;;;;;;;;;;;;;1.12;100.00;97940.89;67879;1277;1016512;-59
2023/01/30 09:27:45;;;;;;;;;;;;;;;1.02;100.00;97944.33;67839;1277;1015849;-59
2023/01/30 09:30:48;;;;;;;;;;;;;;;0.97;100.00;97932.64;67865;1277;1016488;-59
2023/01/30 09:33:50;;;;;;;;;;;;;;;0.85;100.00;97923.41;67896;1277;1016330;-59
2023/01/30 09:36:53;;;;;;;;;;;;;;;0.84;100.00;97924.48;67874;1277;1016185;-59
2023/01/30 09:39:55;;;;;;;;;;;;;;;0.77;100.00;97906.34;67839;1277;1016357;-59
2023/01/30 09:42:58;;;;;;;;;;;;;;;0.92;100.00;97899.77;67859;1277;1016017;-59
2023/01/30 09:46:00;;;;;;;;;;;;;;;1.05;100.00;97903.58;67885;1277;1016476;-59
2023/01/30 09:49:02;;;;;;;;;;;;;;;1.17;100.00;97891.78;67911;1277;1016152;-59
2023/01/30 09:52:05;;;;;;;;;;;;;;;1.02;100.00;97884.23;67891;1277;1017048;-60
2023/01/30 09:55:07;;;;;;;;;;;;;;;1.00;100.00;97877.07;67862;1277;1016463;-60
2023/01/30 09:58:11;;;;;;;;;;;;;;;1.05;100.00;97876.91;67893;1277;1016464;-59
2023/01/30 10:01:13;;;;;;;;;;;;;;;1.04;100.00;97864.20;67851;1277;1017418;-59
2023/01/30 10:04:16;;;;;;;;;;;;;;;1.00;100.00;97854.88;67839;1277;1018016;-59
2023/01/30 10:07:18;;;;;;;;;;;;;;;1.04;100.00;97845.59;67858;1277;1016446;-59
2023/01/30 10:10:20;;;;;;;;;;;;;;;1.16;100.00;97856.17;67908;1277;1016384;-59
2023/01/30 10:13:23;;;;;;;;;;;;;;;1.21;100.00;97847.88;67870;1277;1016449;-59
2023/01/30 10:16:25;;;;;;;;;;;;;;;1.33;100.00;97846.54;67815;1277;1017357;-59
2023/01/30 10:19:28;;;;;;;;;;;;;;;1.46;100.00;97833.64;67859;1277;1016433;-59
2023/01/30 10:22:30;;;;;;;;;;;;;;;1.46;100.00;97833.85;67846;1277;1015988;-59
2023/01/30 10:25:32;;;;;;;;;;;;;;;1.46;100.00;97835.38;67860;1277;1016305;-59
2023/01/30 10:28:35;;;;;;;;;;;;;;;1.46;100.00;97819.02;67879;1277;1016354;-59
2023/01/30 10:31:37;;;;;;;;;;;;;;;1.43;100.00;97832.92;67874;1277;1016273;-59
2023/01/30 10:34:40;;;;;;;;;;;;;;;1.34;100.00;97824.30;67851;1277;1016353;-59
2023/01/30 10:37:42;;;;;;;;;;;;;;;1.16;100.00;97817.75;67789;1277;1016024;-59
2023/01/30 10:40:45;;;;;;;;;;;;;;;1.11;100.00;97822.80;67843;1277;1016291;-59
2023/01/30 10:43:47;;;;;;;;;;;;;;;1.16;100.00;97809.31;67859;1277;1016340;-59
2023/01/30 10:46:50;;;;;;;;;;;;;;;1.20;100.00;97799.00;67839;1277;1016339;-60
2023/01/30 10:49:52;;;;;;;;;;;;;;;1.19;100.00;97807.14;67795;1277;1016309;-60
2023/01/30 10:52:54;;;;;;;;;;;;;;;1.23;100.00;97798.70;67856;1277;1016745;-59
2023/01/30 10:55:57;;;;;;;;;;;;;;;1.18;100.00;97794.94;67930;1277;1016288;-59
2023/01/30 10:58:59;;;;;;;;;;;;;;;1.28;100.00;97782.00;67887;1277;1016443;-59
2023/01/30 11:02:02;;;;;;;;;;;;;;;1.32;100.00;97774.78;67895;1277;1016302;-59
2023/01/30 11:05:04;;;;;;;;;;;;;;;1.32;100.00;97767.69;67840;1277;1016275;-59
2023/01/30 11:08:06;;;;;;;;;;;;;;;1.27;100.00;97769.98;67846;1277;1016477;-59
2023/01/30 11:11:09;;;;;;;;;;;;;;;1.26;100.00;97754.52;67861;1277;1016556;-60
2023/01/30 11:14:11;;;;;;;;;;;;;;;1.23;100.00;97748.08;67910;1277;1017059;-59
2023/01/30 11:17:14;;;;;;;;;;;;;;;1.27;100.00;97760.70;67867;1277;1016484;-59
2023/01/30 11:20:16;;;;;;;;;;;;;;;1.33;100.00;97753.86;67860;1277;1016214;-59
2023/01/30 11:23:18;;;;;;;;;;;;;;;1.40;100.00;97745.52;67855;1277;1016378;-59
2023/01/30 11:26:21;;;;;;;;;;;;;;;1.41;100.00;97741.31;67810;1277;1015740;-59
2023/01/30 11:29:23;;;;;;;;;;;;;;;1.31;100.00;97743.28;67886;1277;1016420;-59
2023/01/30 11:32:26;;;;;;;;;;;;;;;1.31;100.00;97740.17;67897;1277;1016381;-59
2023/01/30 11:35:28;;;;;;;;;;;;;;;1.35;100.00;97729.71;67892;1277;1016162;-59
2023/01/30 11:38:31;;;;;;;;;;;;;;;1.33;100.00;97730.96;67853;1277;1015802;-59
2023/01/30 11:41:33;;;;;;;;;;;;;;;1.45;100.00;97723.45;67850;1277;1016749;-59
2023/01/30 11:44:35;;;;;;;;;;;;;;;1.46;100.00;97712.02;67861;1277;1016104;-59
2023/01/30 11:47:38;;;;;;;;;;;;;;;1.51;100.00;97711.63;67890;1277;1016368;-59
2023/01/30 11:50:40;;;;;;;;;;;;;;;1.56;100.00;97705.04;67902;1277;1016487;-59
2023/01/30 11:53:43;;;;;;;;;;;;;;;1.57;100.00;97702.09;67871;1277;1016433;-59
2023/01/30 11:56:46;;;;;;;;;;;;;;;1.66;100.00;97706.85;67901;1277;1016433;-59
2023/01/30 11:59:48;;;;;;;;;;;;;;;1.74;100.00;97695.98;67879;1277;1016348;-59
2023/01/30 12:02:51;;;;;;;;;;;;;;;1.72;100.00;97702.13;67903;1277;1016403;-59
2023/01/30 12:05:54;;;;;;;;;;;;;;;1.66;100.00;97694.98;67896;1277;1016505;-59
2023/01/30 12:08:56;;;;;;;;;;;;;;;1.61;100.00;97690.71;67858;1277;1016449;-59
2023/01/30 12:11:59;;;;;;;;;;;;;;;1.66;100.00;97686.53;65322;1278;6399366;-59
2023/01/30 12:15:01;;;;;;;;;;;;;;;1.62;100.00;97690.30;67914;1277;1017120;-59
2023/01/30 12:18:04;;;;;;;;;;;;;;;1.62;100.00;97683.59;67920;1277;1015965;-59
2023/01/30 12:21:06;;;;;;;;;;;;;;;1.65;100.00;97684.48;67855;1277;1016442;-59
2023/01/30 12:24:08;;;;;;;;;;;;;;;1.76;100.00;97679.02;67838;1277;1016224;-59
2023/01/30 12:27:11;;;;;;;;;;;;;;;1.79;100.00;97670.81;67869;1277;1016500;-59
2023/01/30 12:30:13;;;;;;;;;;;;;;;1.84;100.00;97663.02;67918;1277;1016246;-59
2023/01/30 12:33:15;;;;;;;;;;;;;;;1.82;100.00;97663.10;67900;1277;1016410;-59
2023/01/30 12:36:18;;;;;;;;;;;;;;;1.81;100.00;97646.92;67863;1277;1016363;-59
2023/01/30 12:39:20;;;;;;;;;;;;;;;1.74;100.00;97655.84;67827;1277;1016667;-59
2023/01/30 12:42:23;;;;;;;;;;;;;;;1.64;100.00;97656.13;67834;1277;1016519;-59
2023/01/30 12:45:25;;;;;;;;;;;;;;;1.61;100.00;97660.91;67826;1277;1016314;-59
2023/01/30 12:48:27;;;;;;;;;;;;;;;1.54;100.00;97657.41;67918;1277;1016335;-59
2023/01/30 12:51:30;;;;;;;;;;;;;;;1.59;100.00;97653.92;67907;1277;1018663;-59
2023/01/30 12:54:32;;;;;;;;;;;;;;;1.56;100.00;97663.50;67859;1277;1016208;-59
2023/01/30 12:57:35;;;;;;;;;;;;;;;1.63;100.00;97640.80;67848;1277;1018500;-59
2023/01/30 13:00:37;;;;;;;;;;;;;;;1.70;100.00;97658.95;67873;1277;1016382;-59
2023/01/30 13:03:40;;;;;;;;;;;;;;;1.70;100.00;97662.06;67900;1277;1016398;-59
2023/01/30 13:06:43;;;;;;;;;;;;;;;1.70;100.00;97657.55;67859;1277;1016506;-60
2023/01/30 13:09:46;;;;;;;;;;;;;;;1.66;100.00;97664.14;67891;1277;1016470;-59
2023/01/30 13:12:48;;;;;;;;;;;;;;;1.59;100.00;97662.73;67887;1277;1018663;-59
2023/01/30 13:15:50;;;;;;;;;;;;;;;1.61;100.00;97655.73;67855;1277;1016301;-60
2023/01/30 13:18:53;;;;;;;;;;;;;;;1.65;100.00;97647.30;67835;1277;1016129;-59
2023/01/30 13:21:55;;;;;;;;;;;;;;;1.65;100.00;97647.77;67833;1277;1017008;-59
2023/01/30 13:24:58;;;;;;;;;;;;;;;1.64;100.00;97642.17;67892;1277;1016266;-59
2023/01/30 13:28:01;;;;;;;;;;;;;;;1.65;100.00;97633.52;67908;1277;1016455;-59
2023/01/30 13:31:03;;;;;;;;;;;;;;;1.68;100.00;97638.89;67839;1277;1016269;-59
2023/01/30 13:34:06;;;;;;;;;;;;;;;1.68;100.00;97627.66;67847;1277;1016262;-59
2023/01/30 13:37:08;;;;;;;;;;;;;;;1.73;100.00;97622.42;67855;1277;1016357;-59
2023/01/30 13:40:10;;;;;;;;;;;;;;;1.82;100.00;97617.42;67900;1277;1016466;-59
2023/01/30 13:43:13;;;;;;;;;;;;;;;1.83;100.00;97620.48;67856;1277;1018830;-59
2023/01/30 13:46:16;;;;;;;;;;;;;;;1.73;100.00;97647.95;67818;1277;1016873;-59
2023/01/30 13:49:19;;;;;;;;;;;;;;;1.76;100.00;97620.11;67886;1277;1016475;-59
2023/01/30 13:52:22;;;;;;;;;;;;;;;1.79;100.00;97612.38;67842;1277;1016359;-59
2023/01/30 13:55:24;;;;;;;;;;;;;;;1.78;100.00;97611.55;67852;1277;1016402;-59
2023/01/30 13:58:29;;;;;;;;;;;;;;;1.78;100.00;97605.35;67852;1277;1017863;-59
2023/01/30 14:01:31;;;;;;;;;;;;;;;1.76;100.00;97612.83;67857;1277;1016708;-59
2023/01/30 14:04:34;;;;;;;;;;;;;;;1.82;100.00;97606.73;67866;1277;1016465;-59
2023/01/30 14:07:37;;;;;;;;;;;;;;;1.86;100.00;97596.17;67899;1277;1017664;-59
2023/01/30 14:10:39;;;;;;;;;;;;;;;1.82;100.00;97608.25;67853;1277;1016278;-59
2023/01/30 14:13:42;;;;;;;;;;;;;;;1.81;100.00;97599.20;67849;1278;1018095;-59
2023/01/30 14:16:44;;;;;;;;;;;;;;;1.86;100.00;97597.24;67882;1278;1018849;-59
2023/01/30 14:19:47;;;;;;;;;;;;;;;1.87;100.00;97610.11;67892;1277;1016523;-59
2023/01/30 14:22:49;;;;;;;;;;;;;;;1.85;100.00;97610.01;67867;1278;1017272;-59
2023/01/30 14:25:52;;;;;;;;;;;;;;;1.83;100.00;97603.92;67869;1278;1016386;-59
2023/01/30 14:28:54;;;;;;;;;;;;;;;1.80;100.00;97601.82;67846;1277;1015975;-59
2023/01/30 14:31:57;;;;;;;;;;;;;;;1.88;100.00;97604.02;67883;1277;1016216;-59
2023/01/30 14:34:59;;;;;;;;;;;;;;;1.95;100.00;97607.48;67890;1278;1016366;-59
2023/01/30 14:38:02;;;;;;;;;;;;;;;2.01;100.00;97609.49;67870;1278;1016313;-59
2023/01/30 14:41:04;;;;;;;;;;;;;;;2.02;100.00;97608.04;67840;1278;1016364;-59
2023/01/30 14:44:06;;;;;;;;;;;;;;;2.12;100.00;97602.09;67860;1278;1016204;-59
2023/01/30 14:47:09;;;;;;;;;;;;;;;2.12;100.00;97619.84;67903;1277;1017430;-59
2023/01/30 14:50:11;;;;;;;;;;;;;;;2.05;100.00;97619.63;67880;1277;1016459;-59
2023/01/30 14:53:14;;;;;;;;;;;;;;;2.00;100.00;97621.27;67840;1278;1016502;-59
2023/01/30 14:56:16;;;;;;;;;;;;;;;2.06;100.00;97618.55;67845;1278;1016851;-60
2023/01/30 14:59:18;;;;;;;;;;;;;;;2.04;100.00;97617.79;67847;1278;1016484;-59
2023/01/30 15:02:21;;;;;;;;;;;;;;;2.06;100.00;97622.16;67861;1277;1016259;-59
2023/01/30 15:05:24;;;;;;;;;;;;;;;2.05;100.00;97627.09;67896;1278;1016383;-59
2023/01/30 15:08:26;;;;;;;;;;;;;;;2.11;100.00;97635.92;67843;1277;1016465;-60
2023/01/30 15:11:28;;;;;;;;;;;;;;;2.17;100.00;97636.73;67841;1278;1016361;-59
2023/01/30 15:14:31;;;;;;;;;;;;;;;2.16;100.00;97638.30;67871;1277;1016663;-59
2023/01/30 15:17:33;;;;;;;;;;;;;;;2.12;100.00;97631.06;67866;1278;1016382;-59
2023/01/30 15:20:36;;;;;;;;;;;;;;;2.12;100.00;97641.60;67857;1277;1017609;-59
2023/01/30 15:23:38;;;;;;;;;;;;;;;2.13;100.00;97646.00;67866;1278;1016408;-59
2023/01/30 15:26:41;;;;;;;;;;;;;;;2.09;100.00;97640.31;67877;1277;1016520;-59